sensor_id;sensor_type;location;lat;lon;timestamp;P1;durP1;ratioP1;P2;durP2;ratioP2
42364;SDS011;28498;54.400;18.566;2023-03-17T00:00:17;13.02;;;4.80;;
42364;SDS011;28498;54.400;18.566;2023-03-17T00:02:45;9.05;;;4.50;;
42364;SDS011;28498;54.400;18.566;2023-03-17T00:05:15;10.73;;;4.57;;
42364;SDS011;28498;54.400;18.566;2023-03-17T00:07:45;12.25;;;4.55;;
42364;SDS011;28498;54.400;18.566;2023-03-17T00:10:13;9.93;;;5.10;;
42364;SDS011;28498;54.400;18.566;2023-03-17T00:12:43;13.85;;;6.10;;
42364;SDS011;28498;54.400;18.566;2023-03-17T00:15:11;12.05;;;4.43;;
42364;SDS011;28498;54.400;18.566;2023-03-17T00:17:40;13.80;;;5.13;;
42364;SDS011;28498;54.400;18.566;2023-03-17T00:20:10;14.20;;;5.55;;
42364;SDS011;28498;54.400;18.566;2023-03-17T00:22:46;9.00;;;4.95;;
42364;SDS011;28498;54.400;18.566;2023-03-17T00:25:19;14.23;;;6.30;;
42364;SDS011;28498;54.400;18.566;2023-03-17T00:27:48;12.80;;;5.20;;
42364;SDS011;28498;54.400;18.566;2023-03-17T00:30:16;11.07;;;5.25;;
42364;SDS011;28498;54.400;18.566;2023-03-17T00:32:44;13.73;;;6.57;;
42364;SDS011;28498;54.400;18.566;2023-03-17T00:35:15;13.20;;;7.35;;
42364;SDS011;28498;54.400;18.566;2023-03-17T00:37:44;16.00;;;7.50;;
42364;SDS011;28498;54.400;18.566;2023-03-17T00:40:16;17.90;;;7.22;;
42364;SDS011;28498;54.400;18.566;2023-03-17T00:42:44;15.80;;;7.25;;
42364;SDS011;28498;54.400;18.566;2023-03-17T00:45:11;16.42;;;7.78;;
42364;SDS011;28498;54.400;18.566;2023-03-17T00:47:39;17.05;;;8.00;;
42364;SDS011;28498;54.400;18.566;2023-03-17T00:50:09;16.27;;;7.93;;
42364;SDS011;28498;54.400;18.566;2023-03-17T00:52:44;18.02;;;7.85;;
42364;SDS011;28498;54.400;18.566;2023-03-17T00:55:11;18.30;;;8.88;;
42364;SDS011;28498;54.400;18.566;2023-03-17T00:57:40;17.13;;;8.48;;
42364;SDS011;28498;54.400;18.566;2023-03-17T01:00:23;18.58;;;8.82;;
42364;SDS011;28498;54.400;18.566;2023-03-17T01:02:54;21.02;;;9.35;;
42364;SDS011;28498;54.400;18.566;2023-03-17T01:05:23;20.58;;;9.20;;
42364;SDS011;28498;54.400;18.566;2023-03-17T01:07:54;18.00;;;9.18;;
42364;SDS011;28498;54.400;18.566;2023-03-17T01:10:25;16.80;;;8.93;;
42364;SDS011;28498;54.400;18.566;2023-03-17T01:12:54;21.33;;;9.23;;
42364;SDS011;28498;54.400;18.566;2023-03-17T01:15:23;18.80;;;8.57;;
42364;SDS011;28498;54.400;18.566;2023-03-17T01:17:54;14.77;;;7.97;;
42364;SDS011;28498;54.400;18.566;2023-03-17T01:20:40;17.40;;;7.38;;
42364;SDS011;28498;54.400;18.566;2023-03-17T01:23:08;15.35;;;6.90;;
42364;SDS011;28498;54.400;18.566;2023-03-17T01:25:38;15.57;;;7.38;;
42364;SDS011;28498;54.400;18.566;2023-03-17T01:28:07;15.73;;;6.32;;
42364;SDS011;28498;54.400;18.566;2023-03-17T01:30:39;13.05;;;5.88;;
42364;SDS011;28498;54.400;18.566;2023-03-17T01:33:07;13.25;;;7.03;;
42364;SDS011;28498;54.400;18.566;2023-03-17T01:35:36;16.08;;;6.63;;
42364;SDS011;28498;54.400;18.566;2023-03-17T01:38:03;15.32;;;6.75;;
42364;SDS011;28498;54.400;18.566;2023-03-17T01:40:33;10.70;;;6.10;;
42364;SDS011;28498;54.400;18.566;2023-03-17T01:48:43;18.88;;;6.68;;
42364;SDS011;28498;54.400;18.566;2023-03-17T01:51:25;13.57;;;5.72;;
42364;SDS011;28498;54.400;18.566;2023-03-17T01:53:59;13.48;;;5.25;;
42364;SDS011;28498;54.400;18.566;2023-03-17T01:56:28;14.30;;;5.63;;
42364;SDS011;28498;54.400;18.566;2023-03-17T01:58:57;12.05;;;5.43;;
42364;SDS011;28498;54.400;18.566;2023-03-17T02:01:27;10.93;;;4.68;;
42364;SDS011;28498;54.400;18.566;2023-03-17T02:03:59;11.68;;;5.50;;
42364;SDS011;28498;54.400;18.566;2023-03-17T02:06:26;13.32;;;5.15;;
42364;SDS011;28498;54.400;18.566;2023-03-17T02:08:53;14.82;;;5.28;;
42364;SDS011;28498;54.400;18.566;2023-03-17T02:11:20;12.05;;;5.78;;
42364;SDS011;28498;54.400;18.566;2023-03-17T02:13:48;11.07;;;5.50;;
42364;SDS011;28498;54.400;18.566;2023-03-17T02:16:15;15.23;;;5.45;;
42364;SDS011;28498;54.400;18.566;2023-03-17T02:18:43;14.23;;;5.43;;
42364;SDS011;28498;54.400;18.566;2023-03-17T02:21:25;15.57;;;5.72;;
42364;SDS011;28498;54.400;18.566;2023-03-17T02:23:57;11.32;;;5.50;;
42364;SDS011;28498;54.400;18.566;2023-03-17T02:26:27;16.67;;;6.13;;
42364;SDS011;28498;54.400;18.566;2023-03-17T02:28:57;12.23;;;7.18;;
42364;SDS011;28498;54.400;18.566;2023-03-17T02:31:25;12.10;;;6.05;;
42364;SDS011;28498;54.400;18.566;2023-03-17T02:33:52;14.02;;;6.55;;
42364;SDS011;28498;54.400;18.566;2023-03-17T02:36:20;13.15;;;5.97;;
42364;SDS011;28498;54.400;18.566;2023-03-17T02:38:47;13.95;;;7.47;;
42364;SDS011;28498;54.400;18.566;2023-03-17T02:41:15;14.25;;;7.32;;
42364;SDS011;28498;54.400;18.566;2023-03-17T02:43:42;19.45;;;6.45;;
42364;SDS011;28498;54.400;18.566;2023-03-17T02:46:09;23.25;;;9.13;;
42364;SDS011;28498;54.400;18.566;2023-03-17T02:48:36;14.93;;;7.30;;
42364;SDS011;28498;54.400;18.566;2023-03-17T02:51:04;17.88;;;7.63;;
42364;SDS011;28498;54.400;18.566;2023-03-17T02:53:31;17.52;;;7.72;;
42364;SDS011;28498;54.400;18.566;2023-03-17T02:55:58;14.50;;;7.75;;
42364;SDS011;28498;54.400;18.566;2023-03-17T02:58:25;16.65;;;7.43;;
42364;SDS011;28498;54.400;18.566;2023-03-17T03:00:53;18.95;;;7.20;;
42364;SDS011;28498;54.400;18.566;2023-03-17T03:03:19;17.77;;;7.35;;
42364;SDS011;28498;54.400;18.566;2023-03-17T03:05:47;14.35;;;7.63;;
42364;SDS011;28498;54.400;18.566;2023-03-17T03:08:13;23.30;;;7.97;;
42364;SDS011;28498;54.400;18.566;2023-03-17T03:10:41;16.33;;;7.18;;
42364;SDS011;28498;54.400;18.566;2023-03-17T03:13:08;20.35;;;8.05;;
42364;SDS011;28498;54.400;18.566;2023-03-17T03:15:39;19.95;;;8.25;;
42364;SDS011;28498;54.400;18.566;2023-03-17T03:18:07;16.95;;;7.30;;
42364;SDS011;28498;54.400;18.566;2023-03-17T03:20:34;16.35;;;7.53;;
42364;SDS011;28498;54.400;18.566;2023-03-17T03:23:01;18.25;;;8.23;;
42364;SDS011;28498;54.400;18.566;2023-03-17T03:25:29;17.65;;;8.25;;
42364;SDS011;28498;54.400;18.566;2023-03-17T03:27:56;13.65;;;7.38;;
42364;SDS011;28498;54.400;18.566;2023-03-17T03:30:23;20.17;;;7.82;;
42364;SDS011;28498;54.400;18.566;2023-03-17T03:32:50;15.20;;;7.32;;
42364;SDS011;28498;54.400;18.566;2023-03-17T03:35:17;20.27;;;7.63;;
42364;SDS011;28498;54.400;18.566;2023-03-17T03:37:44;25.63;;;8.18;;
42364;SDS011;28498;54.400;18.566;2023-03-17T03:40:11;14.93;;;7.70;;
42364;SDS011;28498;54.400;18.566;2023-03-17T03:42:38;16.77;;;7.82;;
42364;SDS011;28498;54.400;18.566;2023-03-17T03:45:06;19.13;;;7.85;;
42364;SDS011;28498;54.400;18.566;2023-03-17T03:47:33;15.77;;;7.20;;
42364;SDS011;28498;54.400;18.566;2023-03-17T03:50:01;18.35;;;8.45;;
42364;SDS011;28498;54.400;18.566;2023-03-17T03:52:28;21.48;;;8.13;;
42364;SDS011;28498;54.400;18.566;2023-03-17T03:54:54;13.35;;;6.38;;
42364;SDS011;28498;54.400;18.566;2023-03-17T03:57:21;17.23;;;7.20;;
42364;SDS011;28498;54.400;18.566;2023-03-17T03:59:48;19.52;;;8.43;;
42364;SDS011;28498;54.400;18.566;2023-03-17T04:02:15;15.85;;;7.60;;
42364;SDS011;28498;54.400;18.566;2023-03-17T04:04:42;11.38;;;6.43;;
42364;SDS011;28498;54.400;18.566;2023-03-17T04:07:10;15.45;;;6.93;;
42364;SDS011;28498;54.400;18.566;2023-03-17T04:09:37;21.23;;;7.85;;
42364;SDS011;28498;54.400;18.566;2023-03-17T04:12:04;17.17;;;7.63;;
42364;SDS011;28498;54.400;18.566;2023-03-17T04:14:32;15.68;;;8.15;;
42364;SDS011;28498;54.400;18.566;2023-03-17T04:16:59;15.68;;;7.10;;
42364;SDS011;28498;54.400;18.566;2023-03-17T04:19:26;14.05;;;6.60;;
42364;SDS011;28498;54.400;18.566;2023-03-17T04:21:54;15.63;;;7.45;;
42364;SDS011;28498;54.400;18.566;2023-03-17T04:24:21;16.83;;;7.70;;
42364;SDS011;28498;54.400;18.566;2023-03-17T04:26:48;15.55;;;7.35;;
42364;SDS011;28498;54.400;18.566;2023-03-17T04:29:15;14.85;;;7.38;;
42364;SDS011;28498;54.400;18.566;2023-03-17T04:31:42;14.13;;;8.13;;
42364;SDS011;28498;54.400;18.566;2023-03-17T04:34:10;14.43;;;7.90;;
42364;SDS011;28498;54.400;18.566;2023-03-17T04:36:41;23.15;;;8.93;;
42364;SDS011;28498;54.400;18.566;2023-03-17T04:39:09;21.77;;;8.55;;
42364;SDS011;28498;54.400;18.566;2023-03-17T04:41:38;22.77;;;8.82;;
42364;SDS011;28498;54.400;18.566;2023-03-17T04:44:05;20.90;;;8.48;;
42364;SDS011;28498;54.400;18.566;2023-03-17T04:46:33;31.35;;;9.20;;
42364;SDS011;28498;54.400;18.566;2023-03-17T04:49:01;18.13;;;8.43;;
42364;SDS011;28498;54.400;18.566;2023-03-17T04:51:28;17.92;;;8.63;;
42364;SDS011;28498;54.400;18.566;2023-03-17T04:53:55;19.20;;;9.00;;
42364;SDS011;28498;54.400;18.566;2023-03-17T04:56:22;21.60;;;9.70;;
42364;SDS011;28498;54.400;18.566;2023-03-17T04:58:49;19.05;;;8.85;;
42364;SDS011;28498;54.400;18.566;2023-03-17T05:01:16;17.30;;;9.85;;
42364;SDS011;28498;54.400;18.566;2023-03-17T05:03:43;20.83;;;10.75;;
42364;SDS011;28498;54.400;18.566;2023-03-17T05:06:10;24.48;;;10.93;;
42364;SDS011;28498;54.400;18.566;2023-03-17T05:08:37;24.15;;;11.07;;
42364;SDS011;28498;54.400;18.566;2023-03-17T05:11:04;25.52;;;10.60;;
42364;SDS011;28498;54.400;18.566;2023-03-17T05:13:31;20.63;;;10.10;;
42364;SDS011;28498;54.400;18.566;2023-03-17T05:15:58;20.60;;;10.32;;
42364;SDS011;28498;54.400;18.566;2023-03-17T05:18:26;21.10;;;10.80;;
42364;SDS011;28498;54.400;18.566;2023-03-17T05:20:53;23.00;;;12.70;;
42364;SDS011;28498;54.400;18.566;2023-03-17T05:23:20;30.85;;;14.05;;
42364;SDS011;28498;54.400;18.566;2023-03-17T05:25:48;27.48;;;13.35;;
42364;SDS011;28498;54.400;18.566;2023-03-17T05:28:15;26.48;;;13.85;;
42364;SDS011;28498;54.400;18.566;2023-03-17T05:30:43;26.77;;;13.38;;
42364;SDS011;28498;54.400;18.566;2023-03-17T05:33:11;33.38;;;13.70;;
42364;SDS011;28498;54.400;18.566;2023-03-17T05:35:38;26.80;;;12.82;;
42364;SDS011;28498;54.400;18.566;2023-03-17T05:38:06;25.35;;;13.82;;
42364;SDS011;28498;54.400;18.566;2023-03-17T05:40:34;27.65;;;13.70;;
42364;SDS011;28498;54.400;18.566;2023-03-17T05:43:02;27.33;;;12.88;;
42364;SDS011;28498;54.400;18.566;2023-03-17T05:45:29;21.02;;;12.35;;
42364;SDS011;28498;54.400;18.566;2023-03-17T05:47:56;31.15;;;14.30;;
42364;SDS011;28498;54.400;18.566;2023-03-17T05:50:24;30.00;;;12.95;;
42364;SDS011;28498;54.400;18.566;2023-03-17T05:52:52;24.27;;;12.15;;
42364;SDS011;28498;54.400;18.566;2023-03-17T05:55:19;25.40;;;13.40;;
42364;SDS011;28498;54.400;18.566;2023-03-17T05:57:47;21.35;;;12.50;;
42364;SDS011;28498;54.400;18.566;2023-03-17T06:00:14;26.98;;;12.90;;
42364;SDS011;28498;54.400;18.566;2023-03-17T06:02:42;26.23;;;13.63;;
42364;SDS011;28498;54.400;18.566;2023-03-17T06:05:09;25.17;;;13.95;;
42364;SDS011;28498;54.400;18.566;2023-03-17T06:07:36;27.05;;;13.50;;
42364;SDS011;28498;54.400;18.566;2023-03-17T06:10:20;36.65;;;14.77;;
42364;SDS011;28498;54.400;18.566;2023-03-17T06:12:47;30.42;;;14.35;;
42364;SDS011;28498;54.400;18.566;2023-03-17T06:15:14;32.70;;;15.20;;
42364;SDS011;28498;54.400;18.566;2023-03-17T06:17:42;31.88;;;14.40;;
42364;SDS011;28498;54.400;18.566;2023-03-17T06:20:09;29.58;;;15.48;;
42364;SDS011;28498;54.400;18.566;2023-03-17T06:22:37;34.13;;;17.23;;
42364;SDS011;28498;54.400;18.566;2023-03-17T06:25:25;31.33;;;16.20;;
42364;SDS011;28498;54.400;18.566;2023-03-17T06:27:52;34.28;;;17.40;;
42364;SDS011;28498;54.400;18.566;2023-03-17T06:30:21;32.83;;;17.35;;
42364;SDS011;28498;54.400;18.566;2023-03-17T06:32:48;36.28;;;18.10;;
42364;SDS011;28498;54.400;18.566;2023-03-17T06:35:15;35.40;;;17.50;;
42364;SDS011;28498;54.400;18.566;2023-03-17T06:37:43;32.83;;;17.08;;
42364;SDS011;28498;54.400;18.566;2023-03-17T06:40:10;34.00;;;18.60;;
42364;SDS011;28498;54.400;18.566;2023-03-17T06:42:38;39.25;;;19.10;;
42364;SDS011;28498;54.400;18.566;2023-03-17T06:45:05;34.53;;;18.58;;
42364;SDS011;28498;54.400;18.566;2023-03-17T06:47:34;33.20;;;17.73;;
42364;SDS011;28498;54.400;18.566;2023-03-17T06:50:03;36.90;;;17.70;;
42364;SDS011;28498;54.400;18.566;2023-03-17T06:52:30;31.25;;;17.13;;
42364;SDS011;28498;54.400;18.566;2023-03-17T06:54:57;29.30;;;17.83;;
42364;SDS011;28498;54.400;18.566;2023-03-17T06:57:24;33.35;;;17.30;;
42364;SDS011;28498;54.400;18.566;2023-03-17T06:59:51;26.65;;;14.90;;
42364;SDS011;28498;54.400;18.566;2023-03-17T07:02:18;33.78;;;16.25;;
42364;SDS011;28498;54.400;18.566;2023-03-17T07:04:45;30.27;;;17.17;;
42364;SDS011;28498;54.400;18.566;2023-03-17T07:07:12;31.90;;;16.63;;
42364;SDS011;28498;54.400;18.566;2023-03-17T07:09:40;31.55;;;16.65;;
42364;SDS011;28498;54.400;18.566;2023-03-17T07:12:07;33.65;;;17.35;;
42364;SDS011;28498;54.400;18.566;2023-03-17T07:14:35;29.92;;;16.13;;
42364;SDS011;28498;54.400;18.566;2023-03-17T07:17:03;34.13;;;16.55;;
42364;SDS011;28498;54.400;18.566;2023-03-17T07:19:31;33.78;;;15.90;;
42364;SDS011;28498;54.400;18.566;2023-03-17T07:21:58;34.33;;;15.93;;
42364;SDS011;28498;54.400;18.566;2023-03-17T07:24:26;29.35;;;15.98;;
42364;SDS011;28498;54.400;18.566;2023-03-17T07:26:53;34.40;;;17.83;;
42364;SDS011;28498;54.400;18.566;2023-03-17T07:29:20;30.08;;;16.90;;
42364;SDS011;28498;54.400;18.566;2023-03-17T07:31:48;31.35;;;18.08;;
42364;SDS011;28498;54.400;18.566;2023-03-17T07:34:15;27.77;;;16.33;;
42364;SDS011;28498;54.400;18.566;2023-03-17T07:36:43;34.35;;;18.02;;
42364;SDS011;28498;54.400;18.566;2023-03-17T07:39:10;28.05;;;16.10;;
42364;SDS011;28498;54.400;18.566;2023-03-17T07:41:38;31.33;;;15.93;;
42364;SDS011;28498;54.400;18.566;2023-03-17T07:44:05;28.92;;;15.80;;
42364;SDS011;28498;54.400;18.566;2023-03-17T07:46:32;29.80;;;14.95;;
42364;SDS011;28498;54.400;18.566;2023-03-17T07:48:59;30.75;;;16.02;;
42364;SDS011;28498;54.400;18.566;2023-03-17T07:51:27;29.80;;;14.85;;
42364;SDS011;28498;54.400;18.566;2023-03-17T07:53:54;29.63;;;15.80;;
42364;SDS011;28498;54.400;18.566;2023-03-17T07:56:29;27.65;;;15.32;;
42364;SDS011;28498;54.400;18.566;2023-03-17T07:58:57;27.58;;;14.30;;
42364;SDS011;28498;54.400;18.566;2023-03-17T08:01:25;30.38;;;14.73;;
42364;SDS011;28498;54.400;18.566;2023-03-17T08:03:53;32.35;;;16.10;;
42364;SDS011;28498;54.400;18.566;2023-03-17T08:06:22;31.38;;;15.65;;
42364;SDS011;28498;54.400;18.566;2023-03-17T08:08:53;32.63;;;16.00;;
42364;SDS011;28498;54.400;18.566;2023-03-17T08:11:20;30.25;;;14.88;;
42364;SDS011;28498;54.400;18.566;2023-03-17T08:13:48;30.98;;;15.27;;
42364;SDS011;28498;54.400;18.566;2023-03-17T08:16:16;31.42;;;15.52;;
42364;SDS011;28498;54.400;18.566;2023-03-17T08:18:43;27.20;;;14.43;;
42364;SDS011;28498;54.400;18.566;2023-03-17T08:21:10;31.83;;;16.25;;
42364;SDS011;28498;54.400;18.566;2023-03-17T08:23:40;28.83;;;16.25;;
42364;SDS011;28498;54.400;18.566;2023-03-17T08:26:08;29.83;;;15.80;;
42364;SDS011;28498;54.400;18.566;2023-03-17T08:28:35;32.83;;;16.75;;
42364;SDS011;28498;54.400;18.566;2023-03-17T08:31:06;32.63;;;17.50;;
42364;SDS011;28498;54.400;18.566;2023-03-17T08:33:39;31.27;;;16.23;;
42364;SDS011;28498;54.400;18.566;2023-03-17T08:36:08;25.25;;;14.60;;
42364;SDS011;28498;54.400;18.566;2023-03-17T08:38:36;28.98;;;15.95;;
42364;SDS011;28498;54.400;18.566;2023-03-17T08:41:06;28.33;;;15.70;;
42364;SDS011;28498;54.400;18.566;2023-03-17T08:43:35;28.88;;;15.57;;
42364;SDS011;28498;54.400;18.566;2023-03-17T08:46:05;28.35;;;15.52;;
42364;SDS011;28498;54.400;18.566;2023-03-17T08:48:35;25.70;;;14.65;;
42364;SDS011;28498;54.400;18.566;2023-03-17T08:51:03;27.52;;;14.23;;
42364;SDS011;28498;54.400;18.566;2023-03-17T08:53:31;24.02;;;13.98;;
42364;SDS011;28498;54.400;18.566;2023-03-17T08:56:00;28.30;;;13.82;;
42364;SDS011;28498;54.400;18.566;2023-03-17T08:58:29;22.70;;;13.88;;
42364;SDS011;28498;54.400;18.566;2023-03-17T09:00:57;24.83;;;13.40;;
42364;SDS011;28498;54.400;18.566;2023-03-17T09:03:26;23.55;;;13.57;;
42364;SDS011;28498;54.400;18.566;2023-03-17T09:05:54;21.52;;;12.55;;
42364;SDS011;28498;54.400;18.566;2023-03-17T09:12:04;23.75;;;13.05;;
42364;SDS011;28498;54.400;18.566;2023-03-17T09:14:33;21.80;;;11.57;;
42364;SDS011;28498;54.400;18.566;2023-03-17T09:17:09;20.27;;;12.30;;
42364;SDS011;28498;54.400;18.566;2023-03-17T09:19:36;20.40;;;11.88;;
42364;SDS011;28498;54.400;18.566;2023-03-17T09:22:04;23.27;;;12.88;;
42364;SDS011;28498;54.400;18.566;2023-03-17T09:24:31;24.17;;;12.63;;
42364;SDS011;28498;54.400;18.566;2023-03-17T09:26:58;22.52;;;11.15;;
42364;SDS011;28498;54.400;18.566;2023-03-17T09:29:26;26.60;;;13.10;;
42364;SDS011;28498;54.400;18.566;2023-03-17T09:31:54;20.65;;;11.43;;
42364;SDS011;28498;54.400;18.566;2023-03-17T09:34:22;19.20;;;11.00;;
42364;SDS011;28498;54.400;18.566;2023-03-17T09:36:52;21.05;;;12.05;;
42364;SDS011;28498;54.400;18.566;2023-03-17T09:39:19;22.70;;;10.95;;
42364;SDS011;28498;54.400;18.566;2023-03-17T09:41:54;19.38;;;11.10;;
42364;SDS011;28498;54.400;18.566;2023-03-17T09:49:38;21.92;;;12.02;;
42364;SDS011;28498;54.400;18.566;2023-03-17T09:52:11;28.40;;;12.23;;
42364;SDS011;28498;54.400;18.566;2023-03-17T09:54:41;21.77;;;12.27;;
42364;SDS011;28498;54.400;18.566;2023-03-17T09:59:46;22.50;;;12.13;;
42364;SDS011;28498;54.400;18.566;2023-03-17T10:02:26;18.73;;;11.45;;
42364;SDS011;28498;54.400;18.566;2023-03-17T10:04:55;21.30;;;11.70;;
42364;SDS011;28498;54.400;18.566;2023-03-17T10:07:37;21.75;;;11.80;;
42364;SDS011;28498;54.400;18.566;2023-03-17T10:11:01;21.70;;;12.77;;
42364;SDS011;28498;54.400;18.566;2023-03-17T10:13:12;22.40;;;12.52;;
42364;SDS011;28498;54.400;18.566;2023-03-17T10:16:06;25.17;;;11.82;;
42364;SDS011;28498;54.400;18.566;2023-03-17T10:18:40;20.08;;;11.57;;
42364;SDS011;28498;54.400;18.566;2023-03-17T10:21:17;20.45;;;11.50;;
42364;SDS011;28498;54.400;18.566;2023-03-17T10:23:49;19.13;;;11.23;;
42364;SDS011;28498;54.400;18.566;2023-03-17T10:28:50;18.63;;;10.73;;
42364;SDS011;28498;54.400;18.566;2023-03-17T10:31:19;17.98;;;10.55;;
42364;SDS011;28498;54.400;18.566;2023-03-17T10:33:54;21.65;;;9.90;;
42364;SDS011;28498;54.400;18.566;2023-03-17T10:37:24;17.70;;;10.65;;
42364;SDS011;28498;54.400;18.566;2023-03-17T10:39:26;17.38;;;10.48;;
42364;SDS011;28498;54.400;18.566;2023-03-17T10:47:17;17.90;;;10.73;;
42364;SDS011;28498;54.400;18.566;2023-03-17T10:53:05;17.47;;;10.03;;
42364;SDS011;28498;54.400;18.566;2023-03-17T10:58:05;20.13;;;9.27;;
42364;SDS011;28498;54.400;18.566;2023-03-17T11:00:54;19.95;;;9.88;;
42364;SDS011;28498;54.400;18.566;2023-03-17T11:06:06;14.13;;;8.25;;
42364;SDS011;28498;54.400;18.566;2023-03-17T11:12:26;17.10;;;8.07;;
42364;SDS011;28498;54.400;18.566;2023-03-17T11:21:18;15.13;;;8.77;;
42364;SDS011;28498;54.400;18.566;2023-03-17T11:32:24;11.13;;;7.07;;
42364;SDS011;28498;54.400;18.566;2023-03-17T11:38:26;17.02;;;8.52;;
42364;SDS011;28498;54.400;18.566;2023-03-17T11:40:59;14.02;;;7.85;;
42364;SDS011;28498;54.400;18.566;2023-03-17T11:43:35;14.40;;;8.00;;
42364;SDS011;28498;54.400;18.566;2023-03-17T11:49:03;13.02;;;7.60;;
42364;SDS011;28498;54.400;18.566;2023-03-17T11:57:04;12.65;;;7.68;;
42364;SDS011;28498;54.400;18.566;2023-03-17T11:59:43;15.57;;;7.82;;
42364;SDS011;28498;54.400;18.566;2023-03-17T12:07:28;12.85;;;8.30;;
42364;SDS011;28498;54.400;18.566;2023-03-17T12:13:08;18.92;;;9.50;;
42364;SDS011;28498;54.400;18.566;2023-03-17T12:15:53;17.70;;;8.30;;
42364;SDS011;28498;54.400;18.566;2023-03-17T12:18:45;15.52;;;8.40;;
42364;SDS011;28498;54.400;18.566;2023-03-17T12:21:32;16.27;;;8.82;;
42364;SDS011;28498;54.400;18.566;2023-03-17T12:24:15;17.75;;;9.10;;
42364;SDS011;28498;54.400;18.566;2023-03-17T12:29:26;15.30;;;8.98;;
42364;SDS011;28498;54.400;18.566;2023-03-17T12:32:15;14.50;;;8.25;;
42364;SDS011;28498;54.400;18.566;2023-03-17T12:34:50;13.30;;;8.65;;
42364;SDS011;28498;54.400;18.566;2023-03-17T12:37:23;17.95;;;9.88;;
42364;SDS011;28498;54.400;18.566;2023-03-17T12:39:54;18.05;;;9.45;;
42364;SDS011;28498;54.400;18.566;2023-03-17T12:45:21;21.10;;;9.80;;
42364;SDS011;28498;54.400;18.566;2023-03-17T12:48:05;18.48;;;9.77;;
42364;SDS011;28498;54.400;18.566;2023-03-17T12:53:48;18.33;;;9.63;;
42364;SDS011;28498;54.400;18.566;2023-03-17T12:56:18;17.45;;;9.18;;
42364;SDS011;28498;54.400;18.566;2023-03-17T12:58:50;15.73;;;9.75;;
42364;SDS011;28498;54.400;18.566;2023-03-17T13:04:04;20.15;;;10.60;;
42364;SDS011;28498;54.400;18.566;2023-03-17T13:06:42;24.17;;;10.57;;
42364;SDS011;28498;54.400;18.566;2023-03-17T13:11:57;16.52;;;9.07;;
42364;SDS011;28498;54.400;18.566;2023-03-17T13:22:23;21.63;;;10.88;;
42364;SDS011;28498;54.400;18.566;2023-03-17T13:27:48;17.15;;;9.25;;
42364;SDS011;28498;54.400;18.566;2023-03-17T13:32:55;18.67;;;10.73;;
42364;SDS011;28498;54.400;18.566;2023-03-17T13:52:01;21.35;;;10.10;;
42364;SDS011;28498;54.400;18.566;2023-03-17T13:54:30;20.45;;;11.07;;
42364;SDS011;28498;54.400;18.566;2023-03-17T14:02:41;14.45;;;8.57;;
42364;SDS011;28498;54.400;18.566;2023-03-17T14:05:20;15.18;;;9.48;;
42364;SDS011;28498;54.400;18.566;2023-03-17T14:07:59;17.05;;;9.13;;
42364;SDS011;28498;54.400;18.566;2023-03-17T14:10:30;19.05;;;9.95;;
42364;SDS011;28498;54.400;18.566;2023-03-17T14:13:08;16.98;;;9.13;;
42364;SDS011;28498;54.400;18.566;2023-03-17T14:16:00;16.80;;;8.77;;
42364;SDS011;28498;54.400;18.566;2023-03-17T14:18:38;14.93;;;8.77;;
42364;SDS011;28498;54.400;18.566;2023-03-17T14:21:18;16.33;;;8.75;;
42364;SDS011;28498;54.400;18.566;2023-03-17T14:23:53;16.85;;;9.38;;
42364;SDS011;28498;54.400;18.566;2023-03-17T14:26:25;17.25;;;9.43;;
42364;SDS011;28498;54.400;18.566;2023-03-17T14:28:54;13.93;;;8.52;;
42364;SDS011;28498;54.400;18.566;2023-03-17T14:31:25;16.52;;;8.75;;
42364;SDS011;28498;54.400;18.566;2023-03-17T14:33:55;16.98;;;8.65;;
42364;SDS011;28498;54.400;18.566;2023-03-17T14:36:24;16.35;;;8.75;;
42364;SDS011;28498;54.400;18.566;2023-03-17T14:38:54;14.57;;;8.68;;
42364;SDS011;28498;54.400;18.566;2023-03-17T14:41:25;15.40;;;9.15;;
42364;SDS011;28498;54.400;18.566;2023-03-17T14:43:57;19.45;;;9.20;;
42364;SDS011;28498;54.400;18.566;2023-03-17T14:46:26;17.13;;;9.23;;
42364;SDS011;28498;54.400;18.566;2023-03-17T14:49:08;16.00;;;8.55;;
42364;SDS011;28498;54.400;18.566;2023-03-17T14:51:44;19.47;;;8.97;;
42364;SDS011;28498;54.400;18.566;2023-03-17T14:54:17;14.63;;;9.13;;
42364;SDS011;28498;54.400;18.566;2023-03-17T14:56:51;18.23;;;8.38;;
42364;SDS011;28498;54.400;18.566;2023-03-17T14:59:28;17.98;;;8.38;;
42364;SDS011;28498;54.400;18.566;2023-03-17T15:01:59;12.63;;;8.13;;
42364;SDS011;28498;54.400;18.566;2023-03-17T15:04:31;14.35;;;8.43;;
42364;SDS011;28498;54.400;18.566;2023-03-17T15:07:00;16.75;;;7.65;;
42364;SDS011;28498;54.400;18.566;2023-03-17T15:12:03;16.55;;;8.88;;
42364;SDS011;28498;54.400;18.566;2023-03-17T15:14:33;16.90;;;8.63;;
42364;SDS011;28498;54.400;18.566;2023-03-17T15:17:05;14.55;;;8.60;;
42364;SDS011;28498;54.400;18.566;2023-03-17T15:19:45;18.13;;;8.93;;
42364;SDS011;28498;54.400;18.566;2023-03-17T15:24:50;15.45;;;10.02;;
42364;SDS011;28498;54.400;18.566;2023-03-17T15:27:24;13.77;;;7.63;;
42364;SDS011;28498;54.400;18.566;2023-03-17T15:29:52;16.60;;;9.43;;
42364;SDS011;28498;54.400;18.566;2023-03-17T15:32:23;15.90;;;8.20;;
42364;SDS011;28498;54.400;18.566;2023-03-17T15:34:52;15.00;;;8.57;;
42364;SDS011;28498;54.400;18.566;2023-03-17T15:39:54;14.75;;;7.70;;
42364;SDS011;28498;54.400;18.566;2023-03-17T15:42:23;18.98;;;8.27;;
42364;SDS011;28498;54.400;18.566;2023-03-17T15:44:53;16.27;;;8.43;;
42364;SDS011;28498;54.400;18.566;2023-03-17T15:47:21;16.92;;;7.72;;
42364;SDS011;28498;54.400;18.566;2023-03-17T15:49:50;14.13;;;8.07;;
42364;SDS011;28498;54.400;18.566;2023-03-17T15:52:22;14.20;;;8.20;;
42364;SDS011;28498;54.400;18.566;2023-03-17T15:54:52;13.98;;;7.95;;
42364;SDS011;28498;54.400;18.566;2023-03-17T15:57:20;16.83;;;9.30;;
42364;SDS011;28498;54.400;18.566;2023-03-17T15:59:48;14.02;;;8.05;;
42364;SDS011;28498;54.400;18.566;2023-03-17T16:04:53;16.55;;;7.78;;
42364;SDS011;28498;54.400;18.566;2023-03-17T16:07:20;13.70;;;8.02;;
42364;SDS011;28498;54.400;18.566;2023-03-17T16:09:47;14.07;;;7.45;;
42364;SDS011;28498;54.400;18.566;2023-03-17T16:12:15;12.95;;;7.32;;
42364;SDS011;28498;54.400;18.566;2023-03-17T16:14:42;13.45;;;7.70;;
42364;SDS011;28498;54.400;18.566;2023-03-17T16:17:21;14.00;;;8.45;;
42364;SDS011;28498;54.400;18.566;2023-03-17T16:19:52;13.30;;;6.50;;
42364;SDS011;28498;54.400;18.566;2023-03-17T16:22:41;16.15;;;7.55;;
42364;SDS011;28498;54.400;18.566;2023-03-17T16:25:15;21.02;;;9.02;;
42364;SDS011;28498;54.400;18.566;2023-03-17T16:27:44;16.75;;;8.32;;
42364;SDS011;28498;54.400;18.566;2023-03-17T16:30:19;13.55;;;7.55;;
42364;SDS011;28498;54.400;18.566;2023-03-17T16:32:48;13.65;;;7.22;;
42364;SDS011;28498;54.400;18.566;2023-03-17T16:35:16;15.98;;;7.75;;
42364;SDS011;28498;54.400;18.566;2023-03-17T16:37:45;18.45;;;7.55;;
42364;SDS011;28498;54.400;18.566;2023-03-17T16:42:51;17.83;;;8.10;;
42364;SDS011;28498;54.400;18.566;2023-03-17T16:45:26;15.50;;;8.32;;
42364;SDS011;28498;54.400;18.566;2023-03-17T16:47:55;14.10;;;8.10;;